• Join FlightAware (Why Join?)
  • Login
  • US Flag 
09:09AM EDT


 

Airport Tracker/Info


-or-


 

Live Flight TrackerFlight Track Log ✈ N966QS ✈ 16-Aug-2013 ✈ KSFO - KMSO

Flight Track Log - Related Links

Times and Time Zones

All times are in EDT time to prevent confusion due to time zone crossing. See the N966QS flight status page for this flight to view local times or setup timezone preferences in your user account.

Time Position Orientation Groundspeed Altitude Reporting Facility
EDT Latitude Longitude Course Direction KTS MPH feet Rate Location/Type
11:03AM 37.6500 -122.3333 38° Northeast 218 251 3,000  Level Northern Cal TRACON
11:04AM 37.7167 -122.2667 38° Northeast 264 304 6,000 2,880 Climbing Northern Cal TRACON
11:05AM 37.7667 -122.1833 53° Northeast 293 337 9,100 2,340 Climbing Northern Cal TRACON
11:06AM 37.8500 -122.1167 32° Northeast 321 369 11,000 1,620 Climbing Northern Cal TRACON
11:08AM 37.9631 -122.0108 36° Northeast 375 432 13,100 1,500 Climbing Oakland Center
11:09AM 37.8773 -122.1060 38° Northeast  Level FlightAware Approximate
11:09AM 38.0506 -121.9283 37° Northeast 388 447 14,700  Level Oakland Center
11:10AM 38.1411 -121.8414 37° Northeast 404 465 16,200 1,320 Climbing Oakland Center
11:11AM 38.2339 -121.7531 37° Northeast 416 479 17,500 1,320 Climbing Oakland Center
11:12AM 38.3286 -121.6617 37° Northeast 426 490 19,000 1,440 Climbing Oakland Center
11:13AM 38.4308 -121.5619 37° Northeast 438 504 20,500 1,140 Climbing Oakland Center
11:14AM 38.5067 -121.4450 50° Northeast 450 518 21,400 1,140 Climbing Oakland Center
11:15AM 38.5992 -121.2814 54° Northeast 470 541 22,900 1,500 Climbing Oakland Center
11:16AM 38.6869 -121.1522 49° Northeast 488 562 24,500 1,380 Climbing Oakland Center
11:17AM 38.7956 -121.0658 32° Northeast 487 560 25,800 1,260 Climbing Oakland Center
11:18AM 38.9147 -120.9778 30° Northeast 492 566 27,100 1,260 Climbing Oakland Center
11:19AM 39.0372 -120.8881 30° Northeast 501 577 28,500 1,260 Climbing Oakland Center
11:20AM 39.1611 -120.7944 30° Northeast 510 587 29,800 1,380 Climbing Oakland Center
11:21AM 39.2878 -120.6992 30° Northeast 522 601 31,400 2,040 Climbing Oakland Center
11:22AM 39.4375 -120.5864 30° Northeast 520 598 34,100 2,340 Climbing Oakland Center
11:23AM 39.5525 -120.4736 37° Northeast 526 605 36,300 2,040 Climbing Oakland Center
11:24AM 39.6622 -120.3550 40° Northeast 518 596 38,400 1,860 Climbing Oakland Center
11:25AM 39.7792 -120.2533 34° Northeast 506 582 40,200 1,260 Climbing Oakland Center
11:26AM 39.9025 -120.1575 31° Northeast 513 590 41,000 360 Climbing Oakland Center
11:27AM 40.0272 -120.0636 30° Northeast 532 612 41,000  Level Oakland Center
11:28AM 40.1583 -119.9633 30° Northeast 542 624 41,000  Level Oakland Center
11:29AM 40.3150 -119.8439 30° Northeast 547 629 41,000  Level Oakland Center
11:30AM 40.4450 -119.7433 30° Northeast 544 626 41,000  Level Oakland Center
11:31AM 40.5514 -119.6628 30° Northeast 535 616 41,000  Level Oakland Center
11:32AM 40.6769 -119.5656 30° Northeast 528 608 41,000  Level Oakland Center
11:33AM 40.8189 -119.4553 30° Northeast 532 612 41,000  Level Oakland Center
11:34AM 40.9622 -119.3411 31° Northeast 535 616 41,000  Level Oakland Center
11:35AM 41.0842 -119.2453 31° Northeast 533 613 41,000  Level Oakland Center
11:36AM 41.1875 -119.1678 29° Northeast 535 616 41,000  Level Salt Lake Center
11:37AM 41.3094 -119.0697 31° Northeast 534 615 41,000  Level Salt Lake Center
11:38AM 41.4528 -118.9572 30° Northeast 535 616 41,000  Level Salt Lake Center
11:39AM 41.5744 -118.8589 31° Northeast 533 613 41,000  Level Salt Lake Center
11:40AM 41.7175 -118.7436 31° Northeast 534 615 41,000  Level Salt Lake Center
11:41AM 41.8400 -118.6453 31° Northeast 536 617 41,000  Level Salt Lake Center
11:42AM 41.9825 -118.5303 31° Northeast 536 617 41,000  Level Salt Lake Center
11:43AM 42.1047 -118.4300 31° Northeast 534 615 41,000  Level Salt Lake Center
11:44AM 42.2469 -118.3111 32° Northeast 536 617 41,000  Level Salt Lake Center
11:46AM 42.3692 -118.2119 31° Northeast 536 617 41,000  Level Salt Lake Center
11:47AM 42.5069 -118.0928 33° Northeast 540 621 41,000  Level Salt Lake Center
11:48AM 42.6289 -117.9931 31° Northeast 535 616 41,000  Level Salt Lake Center
11:49AM 42.7719 -117.8744 31° Northeast 537 618 41,000  Level Salt Lake Center
11:50AM 42.8947 -117.7708 32° Northeast 540 621 41,000  Level Salt Lake Center
11:51AM 43.0372 -117.6503 32° Northeast 539 620 41,000  Level Salt Lake Center
11:52AM 43.1597 -117.5467 32° Northeast 538 619 41,000  Level Salt Lake Center
11:53AM 43.3033 -117.4250 32° Northeast 542 624 41,000  Level Salt Lake Center
11:54AM 43.4253 -117.3200 32° Northeast 541 623 41,000  Level Salt Lake Center
11:55AM 43.5681 -117.1983 32° Northeast 540 621 41,000  Level Salt Lake Center
11:56AM 43.6903 -117.0925 32° Northeast 541 623 41,000  Level Salt Lake Center
11:57AM 43.8122 -116.9875 32° Northeast 539 620 41,000  Level Salt Lake Center
11:58AM 43.9539 -116.8642 32° Northeast 538 619 41,000  Level Salt Lake Center
11:59AM 44.0753 -116.7567 32° Northeast 539 620 41,000  Level Salt Lake Center
12:00PM 44.2153 -116.6317 33° Northeast 534 615 41,000  Level Salt Lake Center
12:01PM 44.3367 -116.5239 32° Northeast 536 617 41,000  Level Salt Lake Center
12:02PM 44.4800 -116.3994 32° Northeast 536 617 41,000  Level Salt Lake Center
12:03PM 44.6042 -116.2878 33° Northeast 541 623 41,000  Level Salt Lake Center
12:04PM 44.7261 -116.1767 33° Northeast 539 620 41,000  Level Salt Lake Center
12:05PM 44.8667 -116.0486 33° Northeast 535 616 41,000  Level Salt Lake Center
12:06PM 44.9858 -115.9389 33° Northeast 535 616 41,000  Level Salt Lake Center
12:07PM 45.1258 -115.8106 33° Northeast 536 617 41,000  Level Seattle Center
12:08PM 45.2653 -115.6825 33° Northeast 535 616 41,000 -1,320 Level Seattle Center
12:09PM 45.3853 -115.5697 33° Northeast 538 619 38,400 -1,980 Descending Seattle Center
12:10PM 45.5272 -115.4358 33° Northeast 547 629 37,000 -720 Descending Seattle Center
12:11PM 45.6511 -115.3186 33° Northeast 554 638 37,000  Level Seattle Center
12:12PM 45.7753 -115.2025 33° Northeast 555 639 37,000 -1,140 Level Seattle Center
12:13PM 45.9036 -115.0803 34° Northeast 550 633 34,800 -2,940 Descending Seattle Center
12:15PM 46.0300 -114.9583 34° Northeast 550 633 31,000 -4,380 Descending Seattle Center
12:16PM 46.1656 -114.8292 33° Northeast 539 620 25,900 -4,800 Descending Seattle Center
12:17PM 46.2842 -114.7156 33° Northeast 518 596 21,300 -4,320 Descending Seattle Center
12:18PM 46.3944 -114.6064 34° Northeast 486 559 17,200 -3,480 Descending Seattle Center
12:19PM 46.4992 -114.5028 34° Northeast 462 532 14,200 -2,640 Descending Seattle Center
12:20PM 46.5986 -114.4044 34° Northeast 444 511 11,900 -1,140 Descending Seattle Center
12:21PM 46.6883 -114.3158 34° Northeast 409 471 12,000 -600 Climbing Seattle Center
12:22PM 46.7708 -114.2233 38° Northeast 342 394 10,700 -1,860 Descending Seattle Center
12:23PM 46.8200 -114.1236 54° Northeast 315 362 8,300 -2,160 Descending Seattle Center
12:24PM 46.8286 -114.0383 82° East 261 300 6,400 -1,800 Descending Seattle Center
12:24PM 46.8478 -114.0208 32° Northeast 163 188 5,600 -1,500 Descending Salt Lake Center
12:25PM 46.8864 -114.0406 341° North 145 167 4,100 -1,200 Descending Salt Lake Center
12:26PM 46.9114 -114.0839 310° West 142 163 3,200 -900 Descending Salt Lake Center
12:28PM 46.9000 -114.0833 34° Northeast  Level FlightAware Approximate